createdAt,value
2017-02-12T00:00:16.231Z,0
2017-02-12T00:01:16.611Z,0
2017-02-12T00:02:16.583Z,0
2017-02-12T00:03:16.567Z,0
2017-02-12T00:04:16.585Z,0
2017-02-12T00:05:16.124Z,0
2017-02-12T00:06:16.502Z,0
2017-02-12T00:07:16.084Z,0
2017-02-12T00:08:16.458Z,0
2017-02-12T00:09:16.437Z,0
2017-02-12T00:10:16.018Z,0
2017-02-12T00:11:16.393Z,0
2017-02-12T00:12:16.372Z,0
2017-02-12T00:13:16.354Z,0
2017-02-12T00:14:16.341Z,0
2017-02-12T00:15:16.309Z,0
2017-02-12T00:16:16.336Z,0
2017-02-12T00:17:16.262Z,0
2017-02-12T00:18:15.842Z,0
2017-02-12T00:19:16.218Z,0
2017-02-12T00:20:15.848Z,0
2017-02-12T00:21:16.180Z,0
2017-02-12T00:22:16.199Z,0
2017-02-12T00:23:16.138Z,0
2017-02-12T00:24:16.118Z,0
2017-02-12T00:25:15.302Z,0
2017-02-12T00:26:16.070Z,0
2017-02-12T00:27:16.052Z,0
2017-02-12T00:28:16.028Z,0
2017-02-12T00:29:16.007Z,0
2017-02-12T00:30:15.993Z,0
2017-02-12T00:31:15.567Z,0
2017-02-12T00:32:15.541Z,0
2017-02-12T00:33:15.921Z,0
2017-02-12T00:34:15.892Z,0
2017-02-12T00:35:15.483Z,0
2017-02-12T00:36:15.852Z,0
2017-02-12T00:37:15.927Z,0
2017-02-12T00:38:15.808Z,0
2017-02-12T00:39:15.392Z,0
2017-02-12T00:40:14.976Z,0
2017-02-12T00:41:15.795Z,0
2017-02-12T00:42:15.327Z,0
2017-02-12T00:43:15.304Z,0
2017-02-12T00:44:15.285Z,0
2017-02-12T00:45:15.713Z,0
2017-02-12T00:46:14.848Z,0
2017-02-12T00:47:15.617Z,0
2017-02-12T00:48:15.197Z,0
2017-02-12T00:49:15.183Z,0
2017-02-12T00:50:15.149Z,0
2017-02-12T00:51:15.128Z,0
2017-02-12T00:52:15.117Z,0
2017-02-12T00:53:15.492Z,0
2017-02-12T00:54:15.459Z,0
2017-02-12T00:55:15.051Z,0
2017-02-12T00:56:15.023Z,0
2017-02-12T00:57:15.403Z,0
2017-02-12T00:58:15.376Z,0
2017-02-12T00:59:14.962Z,0
2017-02-12T01:00:15.387Z,0
2017-02-12T01:01:15.316Z,0
2017-02-12T01:02:15.290Z,0
2017-02-12T01:03:14.879Z,0
2017-02-12T01:04:14.853Z,0
2017-02-12T01:05:14.826Z,0
2017-02-12T01:06:15.207Z,0
2017-02-12T01:07:14.790Z,0
2017-02-12T01:08:14.761Z,0
2017-02-12T01:09:15.148Z,0
2017-02-12T01:10:15.117Z,0
2017-02-12T01:11:15.100Z,0
2017-02-12T01:12:15.080Z,0
2017-02-12T01:13:15.059Z,0
2017-02-12T01:14:15.031Z,0
2017-02-12T01:15:15.013Z,0
2017-02-12T01:16:14.993Z,0
2017-02-12T01:17:15.064Z,0
2017-02-12T01:18:14.547Z,0
2017-02-12T01:19:14.924Z,0
2017-02-12T01:20:14.504Z,0
2017-02-12T01:21:14.919Z,0
2017-02-12T01:22:14.900Z,0
2017-02-12T01:23:14.437Z,0
2017-02-12T01:24:14.812Z,0
2017-02-12T01:25:14.795Z,0
2017-02-12T01:26:14.770Z,0
2017-02-12T01:27:14.746Z,0
2017-02-12T01:28:14.717Z,0
2017-02-12T01:29:14.311Z,0
2017-02-12T01:30:14.290Z,0
2017-02-12T01:31:14.264Z,0
2017-02-12T01:32:14.640Z,0
2017-02-12T01:33:14.626Z,0
2017-02-12T01:34:14.591Z,0
2017-02-12T01:35:14.198Z,0
2017-02-12T01:36:14.549Z,0
2017-02-12T01:37:14.529Z,0
2017-02-12T01:38:14.508Z,0
2017-02-12T01:39:14.484Z,0
2017-02-12T01:40:14.085Z,0
2017-02-12T01:41:14.445Z,0
2017-02-12T01:42:14.416Z,0
2017-02-12T01:43:14.396Z,0
2017-02-12T01:44:14.380Z,0
2017-02-12T01:45:13.960Z,0
2017-02-12T01:46:14.335Z,0
2017-02-12T01:47:13.176Z,0
2017-02-12T01:48:13.891Z,0
2017-02-12T01:49:14.266Z,0
2017-02-12T01:50:13.850Z,0
2017-02-12T01:51:14.227Z,0
2017-02-12T01:52:13.804Z,0
2017-02-12T01:53:14.186Z,0
2017-02-12T01:54:13.762Z,0
2017-02-12T01:55:14.139Z,0
2017-02-12T01:56:14.112Z,0
2017-02-12T01:57:13.693Z,0
2017-02-12T01:58:14.073Z,0
2017-02-12T01:59:14.052Z,0
2017-02-12T02:00:14.031Z,0
2017-02-12T02:01:14.008Z,0
2017-02-12T02:02:14.031Z,0
2017-02-12T02:03:14.014Z,0
2017-02-12T02:04:13.541Z,0
2017-02-12T02:05:13.523Z,0
2017-02-12T02:06:13.898Z,0
2017-02-12T02:07:13.867Z,0
2017-02-12T02:08:13.857Z,0
2017-02-12T02:09:13.823Z,0
2017-02-12T02:10:13.802Z,0
2017-02-12T02:11:13.796Z,0
2017-02-12T02:12:13.763Z,0
2017-02-12T02:13:13.745Z,0
2017-02-12T02:14:13.318Z,0
2017-02-12T02:15:13.708Z,0
2017-02-12T02:16:13.681Z,0
2017-02-12T02:17:13.257Z,0
2017-02-12T02:18:13.634Z,0
2017-02-12T02:19:13.215Z,0
2017-02-12T02:20:13.583Z,0
2017-02-12T02:21:13.568Z,0
2017-02-12T02:22:13.546Z,0
2017-02-12T02:23:13.135Z,0
2017-02-12T02:24:13.312Z,0
2017-02-12T02:25:13.485Z,0
2017-02-12T02:26:13.456Z,0
2017-02-12T02:27:13.043Z,0
2017-02-12T02:28:13.411Z,0
2017-02-12T02:29:13.394Z,0
2017-02-12T02:30:13.367Z,0
2017-02-12T02:31:13.348Z,0
2017-02-12T02:32:12.922Z,0
2017-02-12T02:33:13.327Z,0
2017-02-12T02:34:12.884Z,0
2017-02-12T02:35:12.864Z,0
2017-02-12T02:36:13.238Z,0
2017-02-12T02:37:12.817Z,0
2017-02-12T02:38:13.194Z,0
2017-02-12T02:39:13.172Z,0
2017-02-12T02:40:12.754Z,0
2017-02-12T02:41:12.733Z,0
2017-02-12T02:42:12.319Z,0
2017-02-12T02:43:12.740Z,0
2017-02-12T02:44:11.874Z,0
2017-02-12T02:45:13.044Z,0
2017-02-12T02:46:11.883Z,0
2017-02-12T02:47:12.999Z,0
2017-02-12T02:48:12.576Z,0
2017-02-12T02:49:12.950Z,0
2017-02-12T02:50:12.933Z,0
2017-02-12T02:51:12.506Z,0
2017-02-12T02:52:12.493Z,0
2017-02-12T02:53:12.866Z,0
2017-02-12T02:54:12.844Z,0
2017-02-12T02:55:12.823Z,0
2017-02-12T02:56:12.407Z,0
2017-02-12T02:57:12.783Z,0
2017-02-12T02:58:12.757Z,0
2017-02-12T02:59:12.728Z,0
2017-02-12T03:00:12.709Z,0
2017-02-12T03:01:12.687Z,0
2017-02-12T03:02:12.658Z,0
2017-02-12T03:03:12.648Z,0
2017-02-12T03:04:12.226Z,0
2017-02-12T03:05:12.599Z,0
2017-02-12T03:06:12.578Z,0
2017-02-12T03:07:12.561Z,0
2017-02-12T03:08:12.148Z,0
2017-02-12T03:09:12.558Z,0
2017-02-12T03:10:12.494Z,0
2017-02-12T03:11:12.077Z,0
2017-02-12T03:12:12.450Z,0
2017-02-12T03:13:12.422Z,0
2017-02-12T03:14:12.406Z,0
2017-02-12T03:15:11.997Z,0
2017-02-12T03:16:12.361Z,0
2017-02-12T03:17:12.341Z,0
2017-02-12T03:18:12.318Z,0
2017-02-12T03:19:12.293Z,0
2017-02-12T03:20:12.269Z,0
2017-02-12T03:21:11.849Z,0
2017-02-12T03:22:11.831Z,0
2017-02-12T03:23:12.212Z,0
2017-02-12T03:24:12.181Z,0
2017-02-12T03:25:12.162Z,0
2017-02-12T03:26:12.140Z,0
2017-02-12T03:27:12.117Z,0
2017-02-12T03:28:12.143Z,0
2017-02-12T03:29:12.069Z,0
2017-02-12T03:30:12.116Z,0
2017-02-12T03:31:12.023Z,0
2017-02-12T03:32:11.609Z,0
2017-02-12T03:33:11.985Z,0
2017-02-12T03:34:12.015Z,0
2017-02-12T03:35:12.014Z,0
2017-02-12T03:36:11.912Z,0
2017-02-12T03:37:11.501Z,0
2017-02-12T03:38:11.522Z,0
2017-02-12T03:39:11.847Z,0
2017-02-12T03:40:11.431Z,0
2017-02-12T03:41:11.809Z,0
2017-02-12T03:42:11.832Z,0
2017-02-12T03:43:11.766Z,0
2017-02-12T03:44:11.745Z,0
2017-02-12T03:45:11.717Z,0
2017-02-12T03:46:11.694Z,0
2017-02-12T03:47:11.673Z,0
2017-02-12T03:48:11.652Z,0
2017-02-12T03:49:11.632Z,0
2017-02-12T03:50:11.606Z,0
2017-02-12T03:51:11.588Z,0
2017-02-12T03:52:11.561Z,0
2017-02-12T03:53:11.541Z,0
2017-02-12T03:54:11.519Z,0
2017-02-12T03:55:11.533Z,0
2017-02-12T03:56:11.491Z,0
2017-02-12T03:57:11.459Z,0
2017-02-12T03:58:11.427Z,0
2017-02-12T03:59:11.407Z,0
2017-02-12T04:00:10.591Z,0
2017-02-12T04:01:10.970Z,0
2017-02-12T04:02:11.342Z,0
2017-02-12T04:03:11.323Z,0
2017-02-12T04:04:11.300Z,0
2017-02-12T04:05:10.486Z,0
2017-02-12T04:06:11.252Z,0
2017-02-12T04:07:10.437Z,0
2017-02-12T04:08:10.418Z,0
2017-02-12T04:09:11.179Z,0
2017-02-12T04:10:11.170Z,0
2017-02-12T04:11:11.154Z,0
2017-02-12T04:12:11.123Z,0
2017-02-12T04:13:11.097Z,0
2017-02-12T04:14:11.076Z,0
2017-02-12T04:15:10.708Z,0
2017-02-12T04:16:11.033Z,0
2017-02-12T04:17:11.008Z,0
2017-02-12T04:18:10.584Z,0
2017-02-12T04:19:10.964Z,0
2017-02-12T04:20:10.147Z,0
2017-02-12T04:21:10.928Z,0
2017-02-12T04:22:10.899Z,0
2017-02-12T04:23:10.895Z,0
2017-02-12T04:24:11.051Z,0
2017-02-12T04:25:10.471Z,0
2017-02-12T04:26:10.813Z,0
2017-02-12T04:27:10.388Z,0
2017-02-12T04:28:10.764Z,0
2017-02-12T04:29:10.342Z,0
2017-02-12T04:30:10.324Z,0
2017-02-12T04:31:10.720Z,0
2017-02-12T04:32:10.278Z,0
2017-02-12T04:33:10.251Z,0
2017-02-12T04:34:10.286Z,0
2017-02-12T04:35:10.210Z,0
2017-02-12T04:36:10.219Z,0
2017-02-12T04:37:10.169Z,0
2017-02-12T04:38:10.557Z,0
2017-02-12T04:39:10.516Z,0
2017-02-12T04:40:09.696Z,0
2017-02-12T04:41:10.479Z,0
2017-02-12T04:42:10.048Z,0
2017-02-12T04:43:10.419Z,0
2017-02-12T04:44:10.005Z,0
2017-02-12T04:45:10.380Z,0
2017-02-12T04:46:09.960Z,0
2017-02-12T04:47:10.331Z,0
2017-02-12T04:48:10.306Z,0
2017-02-12T04:49:09.894Z,0
2017-02-12T04:50:10.266Z,0
2017-02-12T04:51:10.240Z,0
2017-02-12T04:52:10.283Z,0
2017-02-12T04:53:10.199Z,0
2017-02-12T04:54:10.175Z,0
2017-02-12T04:55:10.153Z,0
2017-02-12T04:56:09.733Z,0
2017-02-12T04:57:10.105Z,0
2017-02-12T04:58:09.718Z,0
2017-02-12T04:59:09.672Z,0
2017-02-12T05:00:10.043Z,0
2017-02-12T05:01:10.018Z,0
2017-02-12T05:02:10.000Z,0
2017-02-12T05:03:09.971Z,0
2017-02-12T05:04:09.952Z,0
2017-02-12T05:05:09.924Z,0
2017-02-12T05:06:09.506Z,0
2017-02-12T05:07:09.483Z,0
2017-02-12T05:08:09.867Z,0
2017-02-12T05:09:09.833Z,0
2017-02-12T05:10:09.809Z,0
2017-02-12T05:11:09.393Z,0
2017-02-12T05:12:09.377Z,0
2017-02-12T05:13:09.759Z,0
2017-02-12T05:14:09.723Z,0
2017-02-12T05:15:09.305Z,0
2017-02-12T05:16:09.680Z,0
2017-02-12T05:17:09.648Z,0
2017-02-12T05:18:09.627Z,0
2017-02-12T05:19:09.638Z,0
2017-02-12T05:20:09.202Z,0
2017-02-12T05:21:09.562Z,0
2017-02-12T05:22:09.146Z,0
2017-02-12T05:23:09.530Z,0
2017-02-12T05:24:09.495Z,0
2017-02-12T05:25:09.475Z,0
2017-02-12T05:26:09.053Z,0
2017-02-12T05:27:09.425Z,0
2017-02-12T05:28:09.425Z,0
2017-02-12T05:29:09.380Z,0
2017-02-12T05:30:09.358Z,0
2017-02-12T05:31:09.340Z,0
2017-02-12T05:32:09.314Z,0
2017-02-12T05:33:09.291Z,0
2017-02-12T05:34:09.264Z,0
2017-02-12T05:35:09.249Z,0
2017-02-12T05:36:09.273Z,0
2017-02-12T05:37:09.205Z,0
2017-02-12T05:38:09.178Z,0
2017-02-12T05:39:09.153Z,0
2017-02-12T05:40:09.129Z,0
2017-02-12T05:41:09.108Z,0
2017-02-12T05:42:09.096Z,0
2017-02-12T05:43:09.065Z,0
2017-02-12T05:44:09.052Z,0
2017-02-12T05:45:08.626Z,0
2017-02-12T05:46:08.998Z,0
2017-02-12T05:47:08.978Z,0
2017-02-12T05:48:08.951Z,0
2017-02-12T05:49:08.539Z,0
2017-02-12T05:50:08.509Z,0
2017-02-12T05:51:08.885Z,0
2017-02-12T05:52:08.878Z,0
2017-02-12T05:53:08.841Z,0
2017-02-12T05:54:08.812Z,0
2017-02-12T05:55:08.794Z,0
2017-02-12T05:56:08.375Z,0
2017-02-12T05:57:08.352Z,0
2017-02-12T05:58:08.727Z,0
2017-02-12T05:59:08.702Z,0
2017-02-12T06:00:08.679Z,0
2017-02-12T06:01:08.692Z,0
2017-02-12T06:02:08.661Z,0
2017-02-12T06:03:08.624Z,0
2017-02-12T06:04:08.199Z,0
2017-02-12T06:05:08.172Z,0
2017-02-12T06:06:08.547Z,0
2017-02-12T06:07:08.521Z,0
2017-02-12T06:08:08.492Z,0
2017-02-12T06:09:08.481Z,0
2017-02-12T06:10:08.060Z,0
2017-02-12T06:11:08.432Z,0
2017-02-12T06:12:08.412Z,0
2017-02-12T06:13:07.989Z,0
2017-02-12T06:14:08.369Z,0
2017-02-12T06:15:07.941Z,0
2017-02-12T06:16:08.314Z,0
2017-02-12T06:17:08.296Z,0
2017-02-12T06:18:08.275Z,4
2017-02-12T06:19:08.255Z,0
2017-02-12T06:20:07.829Z,0
2017-02-12T06:21:08.208Z,4
2017-02-12T06:22:07.782Z,0
2017-02-12T06:23:08.190Z,4
2017-02-12T06:24:08.335Z,4
2017-02-12T06:25:07.718Z,4
2017-02-12T06:26:08.089Z,8
2017-02-12T06:27:08.070Z,8
2017-02-12T06:28:07.703Z,8
2017-02-12T06:29:08.021Z,12
2017-02-12T06:30:07.608Z,12
2017-02-12T06:31:07.975Z,16
2017-02-12T06:32:07.957Z,16
2017-02-12T06:33:07.959Z,20
2017-02-12T06:34:07.910Z,24
2017-02-12T06:35:07.499Z,28
2017-02-12T06:36:07.864Z,32
2017-02-12T06:37:07.841Z,36
2017-02-12T06:38:07.821Z,40
2017-02-12T06:39:07.405Z,48
2017-02-12T06:40:07.380Z,56
2017-02-12T06:41:07.750Z,64
2017-02-12T06:42:07.728Z,68
2017-02-12T06:43:07.708Z,76
2017-02-12T06:44:07.683Z,84
2017-02-12T06:45:07.259Z,96
2017-02-12T06:46:07.240Z,108
2017-02-12T06:47:07.621Z,116
2017-02-12T06:48:07.201Z,124
2017-02-12T06:49:07.567Z,140
2017-02-12T06:50:07.571Z,148
2017-02-12T06:51:07.521Z,160
2017-02-12T06:52:07.500Z,176
2017-02-12T06:53:07.477Z,188
2017-02-12T06:54:07.458Z,200
2017-02-12T06:55:07.442Z,216
2017-02-12T06:56:07.403Z,232
2017-02-12T06:57:07.385Z,248
2017-02-12T06:58:07.366Z,264
2017-02-12T06:59:07.345Z,280
2017-02-12T07:00:07.337Z,300
2017-02-12T07:01:07.294Z,316
2017-02-12T07:02:07.272Z,336
2017-02-12T07:03:07.250Z,352
2017-02-12T07:04:06.827Z,372
2017-02-12T07:05:06.810Z,392
2017-02-12T07:06:06.782Z,404
2017-02-12T07:07:07.169Z,424
2017-02-12T07:08:06.734Z,440
2017-02-12T07:09:06.711Z,460
2017-02-12T07:10:07.119Z,492
2017-02-12T07:11:07.066Z,512
2017-02-12T07:12:06.651Z,544
2017-02-12T07:13:07.018Z,588
2017-02-12T07:14:06.991Z,652
2017-02-12T07:15:06.973Z,712
2017-02-12T07:16:06.961Z,772
2017-02-12T07:17:06.922Z,832
2017-02-12T07:18:06.913Z,856
2017-02-12T07:19:06.882Z,908
2017-02-12T07:20:06.868Z,940
2017-02-12T07:21:06.838Z,928
2017-02-12T07:22:06.816Z,976
2017-02-12T07:23:06.829Z,1036
2017-02-12T07:24:06.765Z,1112
2017-02-12T07:25:06.745Z,1252
2017-02-12T07:26:06.727Z,1416
2017-02-12T07:27:06.307Z,1580
2017-02-12T07:28:06.682Z,1608
2017-02-12T07:29:06.255Z,1660
2017-02-12T07:30:06.636Z,1884
2017-02-12T07:31:06.618Z,1896
2017-02-12T07:32:06.190Z,1948
2017-02-12T07:33:06.559Z,2048
2017-02-12T07:34:06.543Z,2092
2017-02-12T07:35:06.516Z,2176
2017-02-12T07:36:06.494Z,2364
2017-02-12T07:37:06.482Z,2392
2017-02-12T07:38:06.453Z,2300
2017-02-12T07:39:06.425Z,2388
2017-02-12T07:40:06.404Z,2512
2017-02-12T07:41:06.385Z,2584
2017-02-12T07:42:06.357Z,2240
2017-02-12T07:43:06.340Z,2068
2017-02-12T07:44:06.317Z,2040
2017-02-12T07:45:06.293Z,2052
2017-02-12T07:46:06.271Z,2120
2017-02-12T07:47:06.253Z,2140
2017-02-12T07:48:06.229Z,2144
2017-02-12T07:49:06.200Z,2196
2017-02-12T07:50:06.181Z,2280
2017-02-12T07:51:06.159Z,2304
2017-02-12T07:52:05.743Z,2344
2017-02-12T07:53:06.114Z,2392
2017-02-12T07:54:06.099Z,2412
2017-02-12T07:55:05.671Z,2540
2017-02-12T07:56:06.053Z,2660
2017-02-12T07:57:06.029Z,2424
2017-02-12T07:58:06.008Z,2080
2017-02-12T07:59:06.004Z,2144
2017-02-12T08:00:05.565Z,2400
2017-02-12T08:01:05.940Z,1964
2017-02-12T08:02:05.915Z,1820
2017-02-12T08:03:05.493Z,2232
2017-02-12T08:04:05.872Z,2148
2017-02-12T08:05:05.452Z,1856
2017-02-12T08:06:05.827Z,1836
2017-02-12T08:07:05.816Z,1948
2017-02-12T08:08:05.788Z,2096
2017-02-12T08:09:05.805Z,2020
2017-02-12T08:10:05.748Z,2056
2017-02-12T08:11:05.714Z,2052
2017-02-12T08:12:05.687Z,1940
2017-02-12T08:13:05.671Z,2048
2017-02-12T08:14:05.662Z,2164
2017-02-12T08:15:05.626Z,2328
2017-02-12T08:16:05.613Z,2328
2017-02-12T08:17:05.188Z,2804
2017-02-12T08:18:05.558Z,2948
2017-02-12T08:19:05.549Z,2740
2017-02-12T08:20:05.589Z,2680
2017-02-12T08:21:05.121Z,2596
2017-02-12T08:22:05.104Z,2620
2017-02-12T08:23:05.449Z,2912
2017-02-12T08:24:05.624Z,2868
2017-02-12T08:25:05.394Z,2952
2017-02-12T08:26:04.982Z,3236
2017-02-12T08:27:05.356Z,3408
2017-02-12T08:28:05.330Z,3664
2017-02-12T08:29:05.313Z,4012
2017-02-12T08:30:05.319Z,4144
2017-02-12T08:31:05.265Z,4376
2017-02-12T08:32:05.242Z,4488
2017-02-12T08:33:05.224Z,4544
2017-02-12T08:34:05.198Z,4388
2017-02-12T08:35:05.184Z,4172
2017-02-12T08:36:05.160Z,3672
2017-02-12T08:37:05.134Z,3752
2017-02-12T08:38:05.111Z,3672
2017-02-12T08:39:05.094Z,3988
2017-02-12T08:40:05.073Z,4416
2017-02-12T08:41:05.050Z,4520
2017-02-12T08:42:05.021Z,4708
2017-02-12T08:43:05.002Z,4736
2017-02-12T08:44:04.979Z,5044
2017-02-12T08:45:04.956Z,5152
2017-02-12T08:46:04.935Z,5600
2017-02-12T08:47:04.914Z,5600
2017-02-12T08:48:04.894Z,5604
2017-02-12T08:49:04.872Z,6052
2017-02-12T08:50:04.846Z,6480
2017-02-12T08:51:04.829Z,5528
2017-02-12T08:52:04.448Z,5244
2017-02-12T08:53:04.803Z,5332
2017-02-12T08:54:04.774Z,5576
2017-02-12T08:55:04.756Z,5564
2017-02-12T08:56:04.728Z,5612
2017-02-12T08:57:04.708Z,5888
2017-02-12T08:58:04.732Z,6196
2017-02-12T08:59:04.657Z,6072
2017-02-12T09:00:04.643Z,6188
2017-02-12T09:01:04.225Z,6676
2017-02-12T09:02:04.601Z,7152
2017-02-12T09:03:04.581Z,7192
2017-02-12T09:04:04.558Z,7704
2017-02-12T09:05:04.145Z,8036
2017-02-12T09:06:04.511Z,7836
2017-02-12T09:07:04.494Z,7228
2017-02-12T09:08:04.482Z,6580
2017-02-12T09:09:04.459Z,6116
2017-02-12T09:10:04.037Z,5804
2017-02-12T09:11:04.419Z,6112
2017-02-12T09:12:04.393Z,6416
2017-02-12T09:13:04.374Z,6748
2017-02-12T09:14:04.357Z,6248
2017-02-12T09:15:04.350Z,6120
2017-02-12T09:16:04.316Z,5752
2017-02-12T09:17:04.294Z,5844
2017-02-12T09:18:04.274Z,5600
2017-02-12T09:19:04.253Z,5548
2017-02-12T09:20:04.238Z,5692
2017-02-12T09:21:04.217Z,5824
2017-02-12T09:22:04.195Z,6604
2017-02-12T09:23:04.177Z,6244
2017-02-12T09:24:03.763Z,6320
2017-02-12T09:25:04.136Z,6564
2017-02-12T09:26:03.721Z,7320
2017-02-12T09:27:04.093Z,8232
2017-02-12T09:28:04.073Z,8200
2017-02-12T09:29:04.057Z,7944
2017-02-12T09:30:04.035Z,7692
2017-02-12T09:31:04.015Z,7952
2017-02-12T09:32:03.597Z,8560
2017-02-12T09:33:03.978Z,8912
2017-02-12T09:34:03.957Z,8744
2017-02-12T09:35:03.942Z,9392
2017-02-12T09:36:03.915Z,10164
2017-02-12T09:37:03.916Z,9964
2017-02-12T09:38:03.485Z,9548
2017-02-12T09:39:03.854Z,9660
2017-02-12T09:40:03.447Z,10284
2017-02-12T09:41:03.819Z,9904
2017-02-12T09:42:03.805Z,10116
2017-02-12T09:43:03.386Z,11304
2017-02-12T09:44:03.369Z,11676
2017-02-12T09:45:03.352Z,13832
2017-02-12T09:46:03.333Z,14720
2017-02-12T09:47:03.750Z,13684
2017-02-12T09:48:03.293Z,12052
2017-02-12T09:49:03.674Z,10804
2017-02-12T09:50:03.656Z,9660
2017-02-12T09:51:03.634Z,10400
2017-02-12T09:52:03.218Z,13656
2017-02-12T09:53:03.596Z,16608
2017-02-12T09:54:03.188Z,13700
2017-02-12T09:55:03.557Z,14916
2017-02-12T09:56:03.152Z,15104
2017-02-12T09:57:03.527Z,15688
2017-02-12T09:58:03.513Z,18624
2017-02-12T09:59:03.493Z,17280
2017-02-12T10:00:03.480Z,13732
2017-02-12T10:01:03.457Z,10828
2017-02-12T10:02:03.448Z,10016
2017-02-12T10:03:03.424Z,9400
2017-02-12T10:04:03.410Z,8872
2017-02-12T10:05:02.991Z,9812
2017-02-12T10:06:03.421Z,10828
2017-02-12T10:07:03.355Z,14268
2017-02-12T10:08:02.952Z,15388
2017-02-12T10:09:02.931Z,13172
2017-02-12T10:10:03.309Z,12152
2017-02-12T10:11:03.297Z,11400
2017-02-12T10:12:03.319Z,11212
2017-02-12T10:13:03.263Z,10740
2017-02-12T10:14:02.846Z,11368
2017-02-12T10:15:03.239Z,13360
2017-02-12T10:16:03.213Z,14348
2017-02-12T10:17:03.196Z,12764
2017-02-12T10:18:03.179Z,11772
2017-02-12T10:19:03.160Z,11172
2017-02-12T10:20:03.140Z,9860
2017-02-12T10:21:03.125Z,11108
2017-02-12T10:22:03.108Z,15308
2017-02-12T10:23:02.692Z,19744
2017-02-12T10:24:03.885Z,16136
2017-02-12T10:25:03.058Z,14916
2017-02-12T10:26:03.045Z,15032
2017-02-12T10:27:03.030Z,17184
2017-02-12T10:28:03.007Z,18048
2017-02-12T10:29:02.993Z,17024
2017-02-12T10:30:02.975Z,16640
2017-02-12T10:31:02.957Z,15828
2017-02-12T10:32:02.948Z,11304
2017-02-12T10:33:02.931Z,9244
2017-02-12T10:34:02.916Z,14160
2017-02-12T10:35:02.890Z,19392
2017-02-12T10:36:02.882Z,18720
2017-02-12T10:37:02.867Z,16480
2017-02-12T10:38:02.853Z,14008
2017-02-12T10:39:02.845Z,11260
2017-02-12T10:40:02.828Z,12524
2017-02-12T10:41:02.813Z,13352
2017-02-12T10:42:02.793Z,13700
2017-02-12T10:43:02.779Z,16800
2017-02-12T10:44:02.387Z,13772
2017-02-12T10:45:02.344Z,8796
2017-02-12T10:46:02.739Z,6948
2017-02-12T10:47:02.717Z,6020
2017-02-12T10:48:02.710Z,5740
2017-02-12T10:49:02.690Z,6048
2017-02-12T10:50:02.689Z,6652
2017-02-12T10:51:02.681Z,6968
2017-02-12T10:52:02.644Z,7552
2017-02-12T10:53:02.621Z,8224
2017-02-12T10:54:02.607Z,8748
2017-02-12T10:55:02.589Z,9236
2017-02-12T10:56:02.574Z,9892
2017-02-12T10:57:02.558Z,10896
2017-02-12T10:58:02.540Z,11552
2017-02-12T10:59:02.535Z,12460
2017-02-12T11:00:02.501Z,17824
2017-02-12T11:01:02.495Z,20608
2017-02-12T11:02:02.468Z,19232
2017-02-12T11:03:02.457Z,16992
2017-02-12T11:04:02.441Z,18688
2017-02-12T11:05:02.029Z,14396
2017-02-12T11:06:02.413Z,13524
2017-02-12T11:07:02.394Z,13148
2017-02-12T11:08:02.376Z,12608
2017-02-12T11:09:02.349Z,13496
2017-02-12T11:10:02.337Z,16608
2017-02-12T11:11:02.330Z,25120
2017-02-12T11:12:02.311Z,17888
2017-02-12T11:13:02.363Z,24000
2017-02-12T11:14:01.877Z,17568
2017-02-12T11:15:02.255Z,14060
2017-02-12T11:16:02.260Z,13696
2017-02-12T11:17:02.229Z,11888
2017-02-12T11:18:02.215Z,11932
2017-02-12T11:19:02.192Z,12368
2017-02-12T11:20:02.177Z,12868
2017-02-12T11:21:02.166Z,12532
2017-02-12T11:22:01.358Z,13064
2017-02-12T11:23:01.350Z,14668
2017-02-12T11:24:02.114Z,15280
2017-02-12T11:25:02.113Z,28992
2017-02-12T11:26:02.086Z,28544
2017-02-12T11:27:01.676Z,16236
2017-02-12T11:28:02.058Z,16832
2017-02-12T11:29:01.641Z,20128
2017-02-12T11:30:01.631Z,16480
2017-02-12T11:31:02.061Z,22336
2017-02-12T11:32:01.986Z,21280
2017-02-12T11:33:01.976Z,20256
2017-02-12T11:34:01.956Z,15948
2017-02-12T11:35:01.941Z,21408
2017-02-12T11:36:01.938Z,21824
2017-02-12T11:37:01.908Z,17984
2017-02-12T11:38:01.899Z,24032
2017-02-12T11:39:01.883Z,27168
2017-02-12T11:40:01.872Z,26048
2017-02-12T11:41:01.853Z,24992
2017-02-12T11:42:01.855Z,27616
2017-02-12T11:43:01.843Z,29088
2017-02-12T11:44:01.815Z,29888
2017-02-12T11:45:01.827Z,29120
2017-02-12T11:46:01.796Z,25152
2017-02-12T11:47:01.774Z,23776
2017-02-12T11:48:01.763Z,19392
2017-02-12T11:49:01.749Z,14764
2017-02-12T11:50:01.738Z,9148
2017-02-12T11:51:01.327Z,7404
2017-02-12T11:52:01.714Z,7368
2017-02-12T11:53:01.709Z,7296
2017-02-12T11:54:01.685Z,8208
2017-02-12T11:55:01.669Z,9424
2017-02-12T11:56:01.666Z,10176
2017-02-12T11:57:01.647Z,10492
2017-02-12T11:58:01.649Z,9928
2017-02-12T11:59:01.622Z,11908
2017-02-12T12:00:01.614Z,13096
2017-02-12T12:01:01.592Z,14964
2017-02-12T12:02:01.588Z,14888
2017-02-12T12:03:01.569Z,16576
2017-02-12T12:04:01.553Z,15804
2017-02-12T12:05:01.538Z,15644
2017-02-12T12:06:01.128Z,15380
2017-02-12T12:07:01.116Z,18176
2017-02-12T12:08:01.495Z,15488
2017-02-12T12:09:01.486Z,15684
2017-02-12T12:10:01.469Z,15396
2017-02-12T12:11:01.463Z,15880
2017-02-12T12:12:01.439Z,15680
2017-02-12T12:13:01.431Z,15760
2017-02-12T12:14:01.031Z,16136
2017-02-12T12:15:01.400Z,15844
2017-02-12T12:16:01.388Z,16152
2017-02-12T12:17:01.419Z,16448
2017-02-12T12:18:01.358Z,16112
2017-02-12T12:19:01.337Z,16088
2017-02-12T12:20:01.334Z,16416
2017-02-12T12:21:01.307Z,18016
2017-02-12T12:22:01.300Z,16800
2017-02-12T12:23:01.290Z,17120
2017-02-12T12:24:01.268Z,21856
2017-02-12T12:25:01.253Z,27488
2017-02-12T12:26:01.242Z,27456
2017-02-12T12:27:01.226Z,30720
2017-02-12T12:28:01.216Z,30976
2017-02-12T12:29:01.203Z,31168
2017-02-12T12:30:00.400Z,31616
2017-02-12T12:31:01.174Z,31936
2017-02-12T12:32:01.164Z,31200
2017-02-12T12:33:00.764Z,31936
2017-02-12T12:34:00.744Z,31456
2017-02-12T12:35:01.128Z,31872
2017-02-12T12:36:01.113Z,31584
2017-02-12T12:37:01.167Z,31680
2017-02-12T12:38:01.096Z,32000
2017-02-12T12:39:01.087Z,31072
2017-02-12T12:40:01.076Z,30304
2017-02-12T12:41:01.054Z,29568
2017-02-12T12:42:01.053Z,28672
2017-02-12T12:43:01.037Z,29760
2017-02-12T12:44:01.031Z,29952
2017-02-12T12:45:01.045Z,30176
2017-02-12T12:46:01.018Z,29536
2017-02-12T12:47:01.003Z,27936
2017-02-12T12:48:00.989Z,28032
2017-02-12T12:49:00.983Z,27584
2017-02-12T12:50:00.978Z,27616
2017-02-12T12:51:00.566Z,26688
2017-02-12T12:52:00.965Z,25920
2017-02-12T12:53:00.961Z,26464
2017-02-12T12:54:00.948Z,26208
2017-02-12T12:55:00.936Z,25376
2017-02-12T12:56:00.935Z,26016
2017-02-12T12:57:00.916Z,25664
2017-02-12T12:58:00.910Z,25632
2017-02-12T12:59:00.507Z,25728
2017-02-12T13:00:00.891Z,24960
2017-02-12T13:01:00.881Z,24768
2017-02-12T13:02:00.876Z,25152
2017-02-12T13:03:00.868Z,24736
2017-02-12T13:04:00.462Z,24768
2017-02-12T13:05:00.853Z,24384
2017-02-12T13:06:00.857Z,24800
2017-02-12T13:07:00.835Z,25760
2017-02-12T13:08:00.836Z,26816
2017-02-12T13:09:00.824Z,26400
2017-02-12T13:10:00.818Z,27008
2017-02-12T13:11:00.811Z,26400
2017-02-12T13:12:00.815Z,26304
2017-02-12T13:13:00.792Z,25760
2017-02-12T13:14:00.385Z,25920
2017-02-12T13:15:00.839Z,24992
2017-02-12T13:16:00.773Z,25504
2017-02-12T13:17:00.759Z,25504
2017-02-12T13:18:00.753Z,26176
2017-02-12T13:19:00.748Z,26016
2017-02-12T13:20:00.346Z,26048
2017-02-12T13:21:00.729Z,26528
2017-02-12T13:22:00.745Z,26208
2017-02-12T13:23:00.712Z,26208
2017-02-12T13:24:00.725Z,26016
2017-02-12T13:25:00.699Z,26208
2017-02-12T13:26:00.749Z,25504
2017-02-12T13:27:00.669Z,26016
2017-02-12T13:28:00.711Z,25312
2017-02-12T13:29:00.657Z,25824
2017-02-12T13:30:00.658Z,26048
2017-02-12T13:31:00.639Z,25536
2017-02-12T13:32:00.641Z,26304
2017-02-12T13:33:00.629Z,24992
2017-02-12T13:34:00.619Z,23456
2017-02-12T13:35:00.602Z,22496
2017-02-12T13:36:00.206Z,21664
2017-02-12T13:37:00.593Z,22176
2017-02-12T13:38:00.631Z,22400
2017-02-12T13:39:00.195Z,22432
2017-02-12T13:39:59.790Z,22464
2017-02-12T13:41:00.165Z,22336
2017-02-12T13:42:00.558Z,20896
2017-02-12T13:43:00.152Z,20448
2017-02-12T13:44:00.537Z,20256
2017-02-12T13:45:00.527Z,19776
2017-02-12T13:46:00.517Z,20512
2017-02-12T13:47:00.507Z,20352
2017-02-12T13:48:00.498Z,20096
2017-02-12T13:49:00.484Z,20320
2017-02-12T13:50:00.480Z,19968
2017-02-12T13:51:00.474Z,19904
2017-02-12T13:52:00.461Z,19744